sensor_id;sensor_type;location;lat;lon;timestamp;temperature;humidity
54700;DHT22;40599;53.132;6.090;2022-07-29T00:02:21;14.20;99.90
54700;DHT22;40599;53.132;6.090;2022-07-29T00:04:46;14.20;99.90
54700;DHT22;40599;53.132;6.090;2022-07-29T00:07:12;14.10;99.90
54700;DHT22;40599;53.132;6.090;2022-07-29T00:09:38;14.10;99.90
54700;DHT22;40599;53.132;6.090;2022-07-29T00:12:04;14.10;99.90
54700;DHT22;40599;53.132;6.090;2022-07-29T00:14:30;14.20;99.90
54700;DHT22;40599;53.132;6.090;2022-07-29T00:16:56;14.10;99.90
54700;DHT22;40599;53.132;6.090;2022-07-29T00:19:21;14.20;99.90
54700;DHT22;40599;53.132;6.090;2022-07-29T00:21:47;14.20;99.90
54700;DHT22;40599;53.132;6.090;2022-07-29T00:24:13;14.20;99.90
54700;DHT22;40599;53.132;6.090;2022-07-29T00:26:38;14.20;99.90
54700;DHT22;40599;53.132;6.090;2022-07-29T00:29:04;14.20;99.90
54700;DHT22;40599;53.132;6.090;2022-07-29T00:31:30;14.20;99.90
54700;DHT22;40599;53.132;6.090;2022-07-29T00:33:56;14.20;99.90
54700;DHT22;40599;53.132;6.090;2022-07-29T00:36:22;14.20;99.90
54700;DHT22;40599;53.132;6.090;2022-07-29T00:38:49;14.20;99.90
54700;DHT22;40599;53.132;6.090;2022-07-29T00:41:16;14.20;99.90
54700;DHT22;40599;53.132;6.090;2022-07-29T00:43:42;14.20;99.90
54700;DHT22;40599;53.132;6.090;2022-07-29T00:46:08;14.20;99.90
54700;DHT22;40599;53.132;6.090;2022-07-29T00:48:34;14.20;99.90
54700;DHT22;40599;53.132;6.090;2022-07-29T00:51:02;14.10;99.90
54700;DHT22;40599;53.132;6.090;2022-07-29T00:53:29;14.10;99.90
54700;DHT22;40599;53.132;6.090;2022-07-29T00:55:56;14.10;99.90
54700;DHT22;40599;53.132;6.090;2022-07-29T00:58:23;14.10;99.90
54700;DHT22;40599;53.132;6.090;2022-07-29T01:00:49;14.10;99.90
54700;DHT22;40599;53.132;6.090;2022-07-29T01:03:15;14.10;99.90
54700;DHT22;40599;53.132;6.090;2022-07-29T01:05:42;14.10;99.90
54700;DHT22;40599;53.132;6.090;2022-07-29T01:08:11;14.10;99.90
54700;DHT22;40599;53.132;6.090;2022-07-29T01:10:38;14.10;99.90
54700;DHT22;40599;53.132;6.090;2022-07-29T01:13:05;14.10;99.90
54700;DHT22;40599;53.132;6.090;2022-07-29T01:15:34;14.00;99.90
54700;DHT22;40599;53.132;6.090;2022-07-29T01:18:16;14.10;99.90
54700;DHT22;40599;53.132;6.090;2022-07-29T01:24:06;14.10;99.90
54700;DHT22;40599;53.132;6.090;2022-07-29T01:29:27;14.10;99.90
54700;DHT22;40599;53.132;6.090;2022-07-29T01:34:35;14.10;99.90
54700;DHT22;40599;53.132;6.090;2022-07-29T01:39:43;14.10;99.90
54700;DHT22;40599;53.132;6.090;2022-07-29T01:42:42;14.10;99.90
54700;DHT22;40599;53.132;6.090;2022-07-29T01:50:15;14.10;99.90
54700;DHT22;40599;53.132;6.090;2022-07-29T01:52:49;14.10;99.90
54700;DHT22;40599;53.132;6.090;2022-07-29T01:55:20;14.10;99.90
54700;DHT22;40599;53.132;6.090;2022-07-29T01:57:49;14.10;99.90
54700;DHT22;40599;53.132;6.090;2022-07-29T02:00:16;14.10;99.90
54700;DHT22;40599;53.132;6.090;2022-07-29T02:02:44;14.10;99.90
54700;DHT22;40599;53.132;6.090;2022-07-29T02:05:15;14.20;99.90
54700;DHT22;40599;53.132;6.090;2022-07-29T02:07:43;14.20;99.90
54700;DHT22;40599;53.132;6.090;2022-07-29T02:10:11;14.20;99.90
54700;DHT22;40599;53.132;6.090;2022-07-29T02:12:39;14.20;99.90
54700;DHT22;40599;53.132;6.090;2022-07-29T02:15:07;14.20;99.90
54700;DHT22;40599;53.132;6.090;2022-07-29T02:17:41;14.20;99.90
54700;DHT22;40599;53.132;6.090;2022-07-29T02:20:08;14.20;99.90
54700;DHT22;40599;53.132;6.090;2022-07-29T02:22:37;14.20;99.90
54700;DHT22;40599;53.132;6.090;2022-07-29T02:25:04;14.20;99.90
54700;DHT22;40599;53.132;6.090;2022-07-29T02:27:31;14.20;99.90
54700;DHT22;40599;53.132;6.090;2022-07-29T02:30:01;14.20;99.90
54700;DHT22;40599;53.132;6.090;2022-07-29T02:32:29;14.20;99.90
54700;DHT22;40599;53.132;6.090;2022-07-29T02:34:57;14.20;99.90
54700;DHT22;40599;53.132;6.090;2022-07-29T02:37:25;14.20;99.90
54700;DHT22;40599;53.132;6.090;2022-07-29T02:39:53;14.20;99.90
54700;DHT22;40599;53.132;6.090;2022-07-29T02:42:21;14.20;99.90
54700;DHT22;40599;53.132;6.090;2022-07-29T02:44:48;14.20;99.90
54700;DHT22;40599;53.132;6.090;2022-07-29T02:47:22;14.20;99.90
54700;DHT22;40599;53.132;6.090;2022-07-29T02:49:57;14.20;99.90
54700;DHT22;40599;53.132;6.090;2022-07-29T02:52:43;14.30;99.90
54700;DHT22;40599;53.132;6.090;2022-07-29T02:55:25;14.30;99.90
54700;DHT22;40599;53.132;6.090;2022-07-29T03:00:26;14.30;99.90
54700;DHT22;40599;53.132;6.090;2022-07-29T03:02:56;14.20;99.90
54700;DHT22;40599;53.132;6.090;2022-07-29T03:05:22;14.20;99.90
54700;DHT22;40599;53.132;6.090;2022-07-29T03:07:56;14.20;99.90
54700;DHT22;40599;53.132;6.090;2022-07-29T03:10:24;14.20;99.90
54700;DHT22;40599;53.132;6.090;2022-07-29T03:12:51;14.20;99.90
54700;DHT22;40599;53.132;6.090;2022-07-29T03:15:18;14.20;99.90
54700;DHT22;40599;53.132;6.090;2022-07-29T03:17:44;14.20;99.90
54700;DHT22;40599;53.132;6.090;2022-07-29T03:20:11;14.30;99.90
54700;DHT22;40599;53.132;6.090;2022-07-29T03:22:41;14.20;99.90
54700;DHT22;40599;53.132;6.090;2022-07-29T03:25:17;14.30;99.90
54700;DHT22;40599;53.132;6.090;2022-07-29T03:27:43;14.30;99.90
54700;DHT22;40599;53.132;6.090;2022-07-29T03:30:10;14.30;99.90
54700;DHT22;40599;53.132;6.090;2022-07-29T03:32:36;14.30;99.90
54700;DHT22;40599;53.132;6.090;2022-07-29T03:35:03;14.30;99.90
54700;DHT22;40599;53.132;6.090;2022-07-29T03:37:29;14.40;99.90
54700;DHT22;40599;53.132;6.090;2022-07-29T03:39:57;14.40;99.90
54700;DHT22;40599;53.132;6.090;2022-07-29T03:42:30;14.40;99.90
54700;DHT22;40599;53.132;6.090;2022-07-29T03:45:02;14.40;99.90
54700;DHT22;40599;53.132;6.090;2022-07-29T03:47:29;14.40;99.90
54700;DHT22;40599;53.132;6.090;2022-07-29T03:49:59;14.40;99.90
54700;DHT22;40599;53.132;6.090;2022-07-29T03:52:26;14.40;99.90
54700;DHT22;40599;53.132;6.090;2022-07-29T03:54:52;14.40;99.90
54700;DHT22;40599;53.132;6.090;2022-07-29T03:57:23;14.40;99.90
54700;DHT22;40599;53.132;6.090;2022-07-29T03:59:51;14.30;99.90
54700;DHT22;40599;53.132;6.090;2022-07-29T04:02:17;14.30;99.90
54700;DHT22;40599;53.132;6.090;2022-07-29T04:04:42;14.30;99.90
54700;DHT22;40599;53.132;6.090;2022-07-29T04:07:12;14.30;99.90
54700;DHT22;40599;53.132;6.090;2022-07-29T04:09:38;14.30;99.90
54700;DHT22;40599;53.132;6.090;2022-07-29T04:12:04;14.20;99.90
54700;DHT22;40599;53.132;6.090;2022-07-29T04:14:32;14.20;99.90
54700;DHT22;40599;53.132;6.090;2022-07-29T04:16:58;14.20;99.90
54700;DHT22;40599;53.132;6.090;2022-07-29T04:19:24;14.20;99.90
54700;DHT22;40599;53.132;6.090;2022-07-29T04:21:50;14.20;99.90
54700;DHT22;40599;53.132;6.090;2022-07-29T04:24:17;14.20;99.90
54700;DHT22;40599;53.132;6.090;2022-07-29T04:26:42;14.20;99.90
54700;DHT22;40599;53.132;6.090;2022-07-29T04:29:08;14.20;99.90
54700;DHT22;40599;53.132;6.090;2022-07-29T04:31:34;14.20;99.90
54700;DHT22;40599;53.132;6.090;2022-07-29T04:34:00;14.20;99.90
54700;DHT22;40599;53.132;6.090;2022-07-29T04:36:26;14.20;99.90
54700;DHT22;40599;53.132;6.090;2022-07-29T04:38:51;14.20;99.90
54700;DHT22;40599;53.132;6.090;2022-07-29T04:41:17;14.20;99.90
54700;DHT22;40599;53.132;6.090;2022-07-29T04:43:43;14.20;99.90
54700;DHT22;40599;53.132;6.090;2022-07-29T04:46:09;14.20;99.90
54700;DHT22;40599;53.132;6.090;2022-07-29T04:48:34;14.20;99.90
54700;DHT22;40599;53.132;6.090;2022-07-29T04:51:00;14.20;99.90
54700;DHT22;40599;53.132;6.090;2022-07-29T04:53:26;14.20;99.90
54700;DHT22;40599;53.132;6.090;2022-07-29T04:55:51;14.20;99.90
54700;DHT22;40599;53.132;6.090;2022-07-29T04:58:17;14.20;99.90
54700;DHT22;40599;53.132;6.090;2022-07-29T05:00:43;14.30;99.90
54700;DHT22;40599;53.132;6.090;2022-07-29T05:03:09;14.30;99.90
54700;DHT22;40599;53.132;6.090;2022-07-29T05:05:35;14.30;99.90
54700;DHT22;40599;53.132;6.090;2022-07-29T05:08:01;14.30;99.90
54700;DHT22;40599;53.132;6.090;2022-07-29T05:10:26;14.30;99.90
54700;DHT22;40599;53.132;6.090;2022-07-29T05:12:52;14.40;99.90
54700;DHT22;40599;53.132;6.090;2022-07-29T05:15:18;14.40;99.90
54700;DHT22;40599;53.132;6.090;2022-07-29T05:17:44;14.40;99.90
54700;DHT22;40599;53.132;6.090;2022-07-29T05:20:10;14.40;99.90
54700;DHT22;40599;53.132;6.090;2022-07-29T05:22:36;14.50;99.90
54700;DHT22;40599;53.132;6.090;2022-07-29T05:25:02;14.50;99.90
54700;DHT22;40599;53.132;6.090;2022-07-29T05:27:28;14.50;99.90
54700;DHT22;40599;53.132;6.090;2022-07-29T05:29:53;14.50;99.90
54700;DHT22;40599;53.132;6.090;2022-07-29T05:32:19;14.50;99.90
54700;DHT22;40599;53.132;6.090;2022-07-29T05:34:45;14.60;99.90
54700;DHT22;40599;53.132;6.090;2022-07-29T05:37:11;14.60;99.90
54700;DHT22;40599;53.132;6.090;2022-07-29T05:39:39;14.60;99.90
54700;DHT22;40599;53.132;6.090;2022-07-29T05:42:09;14.70;99.90
54700;DHT22;40599;53.132;6.090;2022-07-29T05:44:39;14.70;99.90
54700;DHT22;40599;53.132;6.090;2022-07-29T05:47:05;14.70;99.90
54700;DHT22;40599;53.132;6.090;2022-07-29T05:49:32;14.70;99.90
54700;DHT22;40599;53.132;6.090;2022-07-29T05:51:57;14.70;99.90
54700;DHT22;40599;53.132;6.090;2022-07-29T05:54:24;14.80;99.90
54700;DHT22;40599;53.132;6.090;2022-07-29T05:56:49;14.90;99.90
54700;DHT22;40599;53.132;6.090;2022-07-29T05:59:15;14.90;99.90
54700;DHT22;40599;53.132;6.090;2022-07-29T06:01:41;15.00;99.90
54700;DHT22;40599;53.132;6.090;2022-07-29T06:04:07;15.00;99.90
54700;DHT22;40599;53.132;6.090;2022-07-29T06:06:33;15.10;99.90
54700;DHT22;40599;53.132;6.090;2022-07-29T06:09:00;15.10;99.90
54700;DHT22;40599;53.132;6.090;2022-07-29T06:11:26;15.20;99.90
54700;DHT22;40599;53.132;6.090;2022-07-29T06:13:52;15.20;99.90
54700;DHT22;40599;53.132;6.090;2022-07-29T06:16:18;15.20;99.90
54700;DHT22;40599;53.132;6.090;2022-07-29T06:18:44;15.30;99.90
54700;DHT22;40599;53.132;6.090;2022-07-29T06:21:10;15.30;99.90
54700;DHT22;40599;53.132;6.090;2022-07-29T06:23:37;15.30;99.90
54700;DHT22;40599;53.132;6.090;2022-07-29T06:26:03;15.40;99.90
54700;DHT22;40599;53.132;6.090;2022-07-29T06:28:29;15.40;99.90
54700;DHT22;40599;53.132;6.090;2022-07-29T06:30:55;15.40;99.90
54700;DHT22;40599;53.132;6.090;2022-07-29T06:33:20;15.40;99.90
54700;DHT22;40599;53.132;6.090;2022-07-29T06:35:46;15.50;99.90
54700;DHT22;40599;53.132;6.090;2022-07-29T06:38:13;15.60;99.90
54700;DHT22;40599;53.132;6.090;2022-07-29T06:40:43;15.70;99.90
54700;DHT22;40599;53.132;6.090;2022-07-29T06:43:35;15.80;99.90
54700;DHT22;40599;53.132;6.090;2022-07-29T06:46:08;15.90;99.90
54700;DHT22;40599;53.132;6.090;2022-07-29T06:48:35;16.00;99.90
54700;DHT22;40599;53.132;6.090;2022-07-29T06:51:05;16.10;99.90
54700;DHT22;40599;53.132;6.090;2022-07-29T06:53:31;16.30;99.90
54700;DHT22;40599;53.132;6.090;2022-07-29T06:55:58;16.60;99.90
54700;DHT22;40599;53.132;6.090;2022-07-29T06:58:27;16.50;99.90
54700;DHT22;40599;53.132;6.090;2022-07-29T07:00:54;16.60;99.90
54700;DHT22;40599;53.132;6.090;2022-07-29T07:03:21;16.80;99.90
54700;DHT22;40599;53.132;6.090;2022-07-29T07:05:47;17.00;99.90
54700;DHT22;40599;53.132;6.090;2022-07-29T07:08:13;17.10;99.90
54700;DHT22;40599;53.132;6.090;2022-07-29T07:10:41;17.50;99.90
54700;DHT22;40599;53.132;6.090;2022-07-29T07:13:07;17.50;99.90
54700;DHT22;40599;53.132;6.090;2022-07-29T07:15:33;17.50;99.90
54700;DHT22;40599;53.132;6.090;2022-07-29T07:20:25;17.70;99.90
54700;DHT22;40599;53.132;6.090;2022-07-29T07:22:51;17.60;99.90
54700;DHT22;40599;53.132;6.090;2022-07-29T07:25:17;17.80;99.90
54700;DHT22;40599;53.132;6.090;2022-07-29T07:27:43;18.00;99.90
54700;DHT22;40599;53.132;6.090;2022-07-29T07:30:10;18.30;99.90
54700;DHT22;40599;53.132;6.090;2022-07-29T07:32:36;18.60;99.90
54700;DHT22;40599;53.132;6.090;2022-07-29T07:35:04;18.50;99.90
54700;DHT22;40599;53.132;6.090;2022-07-29T07:37:30;18.20;99.90
54700;DHT22;40599;53.132;6.090;2022-07-29T07:39:56;18.20;99.90
54700;DHT22;40599;53.132;6.090;2022-07-29T07:42:22;18.10;99.90
54700;DHT22;40599;53.132;6.090;2022-07-29T07:44:48;18.40;99.90
54700;DHT22;40599;53.132;6.090;2022-07-29T07:47:17;18.30;99.90
54700;DHT22;40599;53.132;6.090;2022-07-29T07:49:49;18.50;99.90
54700;DHT22;40599;53.132;6.090;2022-07-29T07:52:16;18.60;99.90
54700;DHT22;40599;53.132;6.090;2022-07-29T07:54:42;18.60;99.90
54700;DHT22;40599;53.132;6.090;2022-07-29T07:57:09;18.70;99.90
54700;DHT22;40599;53.132;6.090;2022-07-29T07:59:35;19.10;99.90
54700;DHT22;40599;53.132;6.090;2022-07-29T08:02:01;19.60;99.90
54700;DHT22;40599;53.132;6.090;2022-07-29T08:04:27;19.80;99.90
54700;DHT22;40599;53.132;6.090;2022-07-29T08:06:53;19.90;99.90
54700;DHT22;40599;53.132;6.090;2022-07-29T08:09:20;19.60;99.90
54700;DHT22;40599;53.132;6.090;2022-07-29T08:11:46;19.90;99.90
54700;DHT22;40599;53.132;6.090;2022-07-29T08:14:12;20.10;99.90
54700;DHT22;40599;53.132;6.090;2022-07-29T08:16:42;20.30;99.90
54700;DHT22;40599;53.132;6.090;2022-07-29T08:19:08;20.50;99.90
54700;DHT22;40599;53.132;6.090;2022-07-29T08:21:34;20.10;99.90
54700;DHT22;40599;53.132;6.090;2022-07-29T08:24:00;19.60;99.90
54700;DHT22;40599;53.132;6.090;2022-07-29T08:26:45;19.10;99.90
54700;DHT22;40599;53.132;6.090;2022-07-29T08:29:11;19.10;99.90
54700;DHT22;40599;53.132;6.090;2022-07-29T08:31:37;19.30;99.90
54700;DHT22;40599;53.132;6.090;2022-07-29T08:34:04;19.40;99.90
54700;DHT22;40599;53.132;6.090;2022-07-29T08:36:31;19.60;99.90
54700;DHT22;40599;53.132;6.090;2022-07-29T08:38:57;19.70;99.90
54700;DHT22;40599;53.132;6.090;2022-07-29T08:41:22;19.70;99.90
54700;DHT22;40599;53.132;6.090;2022-07-29T08:43:49;19.50;99.90
54700;DHT22;40599;53.132;6.090;2022-07-29T08:46:16;19.60;99.90
54700;DHT22;40599;53.132;6.090;2022-07-29T08:48:45;19.70;99.90
54700;DHT22;40599;53.132;6.090;2022-07-29T08:51:15;19.70;99.90
54700;DHT22;40599;53.132;6.090;2022-07-29T08:53:43;19.90;99.90
54700;DHT22;40599;53.132;6.090;2022-07-29T08:56:13;19.80;99.90
54700;DHT22;40599;53.132;6.090;2022-07-29T08:58:40;19.70;99.90
54700;DHT22;40599;53.132;6.090;2022-07-29T09:01:06;19.60;99.90
54700;DHT22;40599;53.132;6.090;2022-07-29T09:03:34;19.50;99.90
54700;DHT22;40599;53.132;6.090;2022-07-29T09:06:02;19.50;99.90
54700;DHT22;40599;53.132;6.090;2022-07-29T09:08:29;19.50;99.90
54700;DHT22;40599;53.132;6.090;2022-07-29T09:10:57;19.20;99.90
54700;DHT22;40599;53.132;6.090;2022-07-29T09:13:24;19.10;99.90
54700;DHT22;40599;53.132;6.090;2022-07-29T09:15:50;18.70;99.90
54700;DHT22;40599;53.132;6.090;2022-07-29T09:18:38;18.40;99.90
54700;DHT22;40599;53.132;6.090;2022-07-29T09:21:07;18.00;99.90
54700;DHT22;40599;53.132;6.090;2022-07-29T09:26:37;17.70;99.90
54700;DHT22;40599;53.132;6.090;2022-07-29T09:31:38;17.50;99.90
54700;DHT22;40599;53.132;6.090;2022-07-29T09:34:05;17.50;99.90
54700;DHT22;40599;53.132;6.090;2022-07-29T09:36:42;17.50;99.90
54700;DHT22;40599;53.132;6.090;2022-07-29T09:39:08;17.60;99.90
54700;DHT22;40599;53.132;6.090;2022-07-29T09:41:50;17.60;99.90
54700;DHT22;40599;53.132;6.090;2022-07-29T09:44:21;17.50;99.90
54700;DHT22;40599;53.132;6.090;2022-07-29T09:47:01;17.50;99.90
54700;DHT22;40599;53.132;6.090;2022-07-29T09:49:34;17.50;99.90
54700;DHT22;40599;53.132;6.090;2022-07-29T09:52:09;17.60;99.90
54700;DHT22;40599;53.132;6.090;2022-07-29T09:54:36;17.70;99.90
54700;DHT22;40599;53.132;6.090;2022-07-29T09:57:07;17.80;99.90
54700;DHT22;40599;53.132;6.090;2022-07-29T09:59:35;17.80;99.90
54700;DHT22;40599;53.132;6.090;2022-07-29T10:02:01;17.80;99.90
54700;DHT22;40599;53.132;6.090;2022-07-29T10:04:40;17.70;99.90
54700;DHT22;40599;53.132;6.090;2022-07-29T10:07:06;17.80;99.90
54700;DHT22;40599;53.132;6.090;2022-07-29T10:09:33;17.80;99.90
54700;DHT22;40599;53.132;6.090;2022-07-29T10:12:16;17.90;99.90
54700;DHT22;40599;53.132;6.090;2022-07-29T10:14:44;18.00;99.90
54700;DHT22;40599;53.132;6.090;2022-07-29T10:17:10;18.30;99.90
54700;DHT22;40599;53.132;6.090;2022-07-29T10:19:37;18.50;99.90
54700;DHT22;40599;53.132;6.090;2022-07-29T10:22:08;19.00;99.90
54700;DHT22;40599;53.132;6.090;2022-07-29T10:24:35;19.40;99.90
54700;DHT22;40599;53.132;6.090;2022-07-29T10:27:04;19.80;99.90
54700;DHT22;40599;53.132;6.090;2022-07-29T10:29:30;19.90;99.90
54700;DHT22;40599;53.132;6.090;2022-07-29T10:35:40;20.40;99.90
54700;DHT22;40599;53.132;6.090;2022-07-29T10:43:29;20.80;99.90
54700;DHT22;40599;53.132;6.090;2022-07-29T10:45:58;20.70;99.90
54700;DHT22;40599;53.132;6.090;2022-07-29T10:48:24;20.10;99.90
54700;DHT22;40599;53.132;6.090;2022-07-29T10:53:22;19.50;99.90
54700;DHT22;40599;53.132;6.090;2022-07-29T10:55:49;19.30;99.90
54700;DHT22;40599;53.132;6.090;2022-07-29T10:58:20;19.30;99.90
54700;DHT22;40599;53.132;6.090;2022-07-29T11:00:52;19.30;99.90
54700;DHT22;40599;53.132;6.090;2022-07-29T11:03:47;19.10;99.90
54700;DHT22;40599;53.132;6.090;2022-07-29T11:06:14;19.10;99.90
54700;DHT22;40599;53.132;6.090;2022-07-29T11:08:40;19.10;99.90
54700;DHT22;40599;53.132;6.090;2022-07-29T11:11:40;19.10;99.90
54700;DHT22;40599;53.132;6.090;2022-07-29T11:13:59;19.20;99.90
54700;DHT22;40599;53.132;6.090;2022-07-29T11:16:24;19.30;99.90
54700;DHT22;40599;53.132;6.090;2022-07-29T11:21:43;19.40;99.90
54700;DHT22;40599;53.132;6.090;2022-07-29T11:24:20;19.50;99.90
54700;DHT22;40599;53.132;6.090;2022-07-29T11:27:16;19.60;99.90
54700;DHT22;40599;53.132;6.090;2022-07-29T11:29:57;19.60;99.90
54700;DHT22;40599;53.132;6.090;2022-07-29T11:32:39;19.60;99.90
54700;DHT22;40599;53.132;6.090;2022-07-29T11:37:40;19.70;99.90
54700;DHT22;40599;53.132;6.090;2022-07-29T11:47:28;20.00;99.90
54700;DHT22;40599;53.132;6.090;2022-07-29T11:49:58;20.10;99.90
54700;DHT22;40599;53.132;6.090;2022-07-29T11:52:50;20.20;99.90
54700;DHT22;40599;53.132;6.090;2022-07-29T11:55:21;20.20;99.90
54700;DHT22;40599;53.132;6.090;2022-07-29T11:57:59;20.30;99.90
54700;DHT22;40599;53.132;6.090;2022-07-29T12:00:36;20.40;99.90
54700;DHT22;40599;53.132;6.090;2022-07-29T12:03:07;20.30;99.90
54700;DHT22;40599;53.132;6.090;2022-07-29T12:05:41;20.40;99.90
54700;DHT22;40599;53.132;6.090;2022-07-29T12:08:16;20.50;99.90
54700;DHT22;40599;53.132;6.090;2022-07-29T12:10:45;20.60;99.90
54700;DHT22;40599;53.132;6.090;2022-07-29T12:13:12;20.80;99.90
54700;DHT22;40599;53.132;6.090;2022-07-29T12:15:39;20.80;99.90
54700;DHT22;40599;53.132;6.090;2022-07-29T12:18:21;20.80;99.90
54700;DHT22;40599;53.132;6.090;2022-07-29T12:20:49;20.90;99.90
54700;DHT22;40599;53.132;6.090;2022-07-29T12:23:21;21.00;99.90
54700;DHT22;40599;53.132;6.090;2022-07-29T12:25:47;21.40;99.90
54700;DHT22;40599;53.132;6.090;2022-07-29T12:28:14;21.50;99.90
54700;DHT22;40599;53.132;6.090;2022-07-29T12:30:48;21.40;99.90
54700;DHT22;40599;53.132;6.090;2022-07-29T12:33:21;21.60;99.90
54700;DHT22;40599;53.132;6.090;2022-07-29T12:35:53;21.50;99.90
54700;DHT22;40599;53.132;6.090;2022-07-29T12:38:20;21.50;99.90
54700;DHT22;40599;53.132;6.090;2022-07-29T12:40:47;21.30;99.90
54700;DHT22;40599;53.132;6.090;2022-07-29T12:43:21;21.40;99.90
54700;DHT22;40599;53.132;6.090;2022-07-29T12:45:49;21.50;99.90
54700;DHT22;40599;53.132;6.090;2022-07-29T12:48:35;21.40;99.90
54700;DHT22;40599;53.132;6.090;2022-07-29T12:51:04;21.60;99.90
54700;DHT22;40599;53.132;6.090;2022-07-29T12:53:31;21.80;99.90
54700;DHT22;40599;53.132;6.090;2022-07-29T12:55:58;22.00;99.90
54700;DHT22;40599;53.132;6.090;2022-07-29T12:58:35;21.70;99.90
54700;DHT22;40599;53.132;6.090;2022-07-29T13:01:03;21.70;99.90
54700;DHT22;40599;53.132;6.090;2022-07-29T13:03:45;21.70;99.90
54700;DHT22;40599;53.132;6.090;2022-07-29T13:06:44;22.20;99.90
54700;DHT22;40599;53.132;6.090;2022-07-29T13:09:18;22.30;99.90
54700;DHT22;40599;53.132;6.090;2022-07-29T13:11:46;22.30;99.90
54700;DHT22;40599;53.132;6.090;2022-07-29T13:14:34;22.20;99.90
54700;DHT22;40599;53.132;6.090;2022-07-29T13:17:20;22.30;99.90
54700;DHT22;40599;53.132;6.090;2022-07-29T13:20:06;22.60;99.90
54700;DHT22;40599;53.132;6.090;2022-07-29T13:22:34;23.10;99.90
54700;DHT22;40599;53.132;6.090;2022-07-29T13:25:02;23.30;99.90
54700;DHT22;40599;53.132;6.090;2022-07-29T13:27:33;23.70;99.90
54700;DHT22;40599;53.132;6.090;2022-07-29T13:30:01;24.10;99.90
54700;DHT22;40599;53.132;6.090;2022-07-29T13:32:29;24.40;99.90
54700;DHT22;40599;53.132;6.090;2022-07-29T13:34:56;24.50;99.90
54700;DHT22;40599;53.132;6.090;2022-07-29T13:37:22;25.10;99.90
54700;DHT22;40599;53.132;6.090;2022-07-29T13:39:48;25.40;99.90
54700;DHT22;40599;53.132;6.090;2022-07-29T13:42:14;25.60;99.90
54700;DHT22;40599;53.132;6.090;2022-07-29T13:44:40;25.20;99.90
54700;DHT22;40599;53.132;6.090;2022-07-29T13:47:07;25.30;99.90
54700;DHT22;40599;53.132;6.090;2022-07-29T13:49:33;25.30;99.90
54700;DHT22;40599;53.132;6.090;2022-07-29T13:51:59;25.50;99.90
54700;DHT22;40599;53.132;6.090;2022-07-29T13:54:24;25.60;99.90
54700;DHT22;40599;53.132;6.090;2022-07-29T13:56:51;25.60;99.90
54700;DHT22;40599;53.132;6.090;2022-07-29T13:59:17;25.70;99.90
54700;DHT22;40599;53.132;6.090;2022-07-29T14:01:43;25.60;99.90
54700;DHT22;40599;53.132;6.090;2022-07-29T14:04:10;25.40;99.90
54700;DHT22;40599;53.132;6.090;2022-07-29T14:06:36;25.40;99.90
54700;DHT22;40599;53.132;6.090;2022-07-29T14:09:02;25.50;99.90
54700;DHT22;40599;53.132;6.090;2022-07-29T14:11:32;25.70;99.90
54700;DHT22;40599;53.132;6.090;2022-07-29T14:13:57;25.70;99.90
54700;DHT22;40599;53.132;6.090;2022-07-29T14:16:23;26.00;99.90
54700;DHT22;40599;53.132;6.090;2022-07-29T14:18:49;25.90;99.90
54700;DHT22;40599;53.132;6.090;2022-07-29T14:21:14;25.50;99.90
54700;DHT22;40599;53.132;6.090;2022-07-29T14:23:40;25.60;99.90
54700;DHT22;40599;53.132;6.090;2022-07-29T14:26:06;25.50;99.90
54700;DHT22;40599;53.132;6.090;2022-07-29T14:28:32;25.10;99.90
54700;DHT22;40599;53.132;6.090;2022-07-29T14:30:58;24.90;99.90
54700;DHT22;40599;53.132;6.090;2022-07-29T14:33:24;24.90;99.90
54700;DHT22;40599;53.132;6.090;2022-07-29T14:35:49;25.10;99.90
54700;DHT22;40599;53.132;6.090;2022-07-29T14:38:15;25.30;99.90
54700;DHT22;40599;53.132;6.090;2022-07-29T14:40:41;25.70;99.90
54700;DHT22;40599;53.132;6.090;2022-07-29T14:43:06;26.00;99.90
54700;DHT22;40599;53.132;6.090;2022-07-29T14:45:32;26.10;99.90
54700;DHT22;40599;53.132;6.090;2022-07-29T14:47:58;26.00;99.90
54700;DHT22;40599;53.132;6.090;2022-07-29T14:50:25;25.90;99.90
54700;DHT22;40599;53.132;6.090;2022-07-29T14:52:52;25.90;99.90
54700;DHT22;40599;53.132;6.090;2022-07-29T14:55:17;26.00;99.90
54700;DHT22;40599;53.132;6.090;2022-07-29T14:57:43;26.00;99.90
54700;DHT22;40599;53.132;6.090;2022-07-29T15:00:09;25.70;99.90
54700;DHT22;40599;53.132;6.090;2022-07-29T15:02:36;25.70;99.90
54700;DHT22;40599;53.132;6.090;2022-07-29T15:05:02;25.60;99.90
54700;DHT22;40599;53.132;6.090;2022-07-29T15:07:28;25.60;99.90
54700;DHT22;40599;53.132;6.090;2022-07-29T15:09:54;25.60;99.90
54700;DHT22;40599;53.132;6.090;2022-07-29T15:12:20;25.70;99.90
54700;DHT22;40599;53.132;6.090;2022-07-29T15:14:46;26.00;99.90
54700;DHT22;40599;53.132;6.090;2022-07-29T15:17:12;26.20;99.90
54700;DHT22;40599;53.132;6.090;2022-07-29T15:19:38;26.40;99.90
54700;DHT22;40599;53.132;6.090;2022-07-29T15:22:03;26.50;99.90
54700;DHT22;40599;53.132;6.090;2022-07-29T15:24:32;26.70;99.90
54700;DHT22;40599;53.132;6.090;2022-07-29T15:26:58;27.00;99.90
54700;DHT22;40599;53.132;6.090;2022-07-29T15:29:24;27.10;99.90
54700;DHT22;40599;53.132;6.090;2022-07-29T15:31:49;27.10;99.90
54700;DHT22;40599;53.132;6.090;2022-07-29T15:34:15;27.00;99.90
54700;DHT22;40599;53.132;6.090;2022-07-29T15:36:41;27.20;99.90
54700;DHT22;40599;53.132;6.090;2022-07-29T15:39:07;27.20;99.90
54700;DHT22;40599;53.132;6.090;2022-07-29T15:41:33;27.30;99.90
54700;DHT22;40599;53.132;6.090;2022-07-29T15:43:59;27.30;99.90
54700;DHT22;40599;53.132;6.090;2022-07-29T15:46:25;27.40;99.90
54700;DHT22;40599;53.132;6.090;2022-07-29T15:49:09;27.20;99.90
54700;DHT22;40599;53.132;6.090;2022-07-29T15:51:35;27.10;99.90
54700;DHT22;40599;53.132;6.090;2022-07-29T15:54:01;27.20;99.90
54700;DHT22;40599;53.132;6.090;2022-07-29T15:56:28;27.00;99.90
54700;DHT22;40599;53.132;6.090;2022-07-29T15:58:54;27.10;99.90
54700;DHT22;40599;53.132;6.090;2022-07-29T16:01:20;26.90;99.90
54700;DHT22;40599;53.132;6.090;2022-07-29T16:03:45;26.80;99.90
54700;DHT22;40599;53.132;6.090;2022-07-29T16:06:11;27.10;99.90
54700;DHT22;40599;53.132;6.090;2022-07-29T16:08:37;27.10;99.90
54700;DHT22;40599;53.132;6.090;2022-07-29T16:11:03;27.20;99.90
54700;DHT22;40599;53.132;6.090;2022-07-29T16:13:29;26.90;99.90
54700;DHT22;40599;53.132;6.090;2022-07-29T16:15:54;26.80;99.90
54700;DHT22;40599;53.132;6.090;2022-07-29T16:18:20;26.60;99.90
54700;DHT22;40599;53.132;6.090;2022-07-29T16:20:46;26.60;99.90
54700;DHT22;40599;53.132;6.090;2022-07-29T16:23:11;26.40;99.90
54700;DHT22;40599;53.132;6.090;2022-07-29T16:25:38;26.20;99.90
54700;DHT22;40599;53.132;6.090;2022-07-29T16:35:23;25.30;99.90
54700;DHT22;40599;53.132;6.090;2022-07-29T16:37:48;25.20;99.90